Show Low, AZ (85901)

11:18 PM MST am 25. April 2015 (GMT -0700)
Torreon | | Change Station
CLOSE
Current Station
Persönliche Wetterstationen
Location: Show Low, AZ
Höhe: 6391 ft
Wetterstationen in der Umgebung

Höhe 6391 ft 34.25 °N, 110.09 °W | Updated 7 minutes ago

Regen
Regen
40.3 °F
gefühlte 33 °F
N
12.0
Wind Wechselnd Wind aus West-Südwest
Gusts 17.0 mph

Heute
Max. -- | schwach -- °F
--% Regenrisiko
Gestern
Max. -- | schwach -- °F
Precip. -- inch
5:37 AM 6:59 PM
Erstes Viertel, 52% visible
Druck 29.83 inch
Sichtweite 9.0 Meilen
Wolken Teils Wolkig 1100 ft
Wolkig 1700 ft
Bedeckt 4500 ft
Windchill 33 °F
Taupunkt 38 °F
Feuchtigkeit 92%
Regen inch
Schneehöhe Nicht verfügbar..
UV 0 von 12
Pollen 7.80 von 12
Luftqualität Nicht verfügbar..
Flu Activity Local Activity
METAR KSOW 260615Z AUTO 20020G23KT 9SM -RA SCT011 BKN017 OVC045 04/02 A2983 RMK AO2 P0001

More Conditions Fewer Conditions

Druck 29.83 inch
Sichtweite 9.0 Meilen
Wolken Teils Wolkig 1100 ft
Wolkig 1700 ft
Bedeckt 4500 ft
Windchill 33 °F
Taupunkt 38 °F
Feuchtigkeit 92%
Regen inch
Schneehöhe Nicht verfügbar..
UV 0 von 12
Pollen 7.80 von 12
Luftqualität Nicht verfügbar..
Flu Activity Local Activity
METAR KSOW 260615Z AUTO 20020G23KT 9SM -RA SCT011 BKN017 OVC045 04/02 A2983 RMK AO2 P0001

More Conditions Fewer Conditions

The full scope of the disaster following a powerful 7.8-magnitude earthquake in Nepal may not come into view for days, but global charities are already sending emergency aid. Click to see how you can help.

10-Day Weather Forecast

Almanac

Astronomie

Apr. 25, 2015 Aufgang Untergang
Genaue Zeit
Bürgerliche Dämmerung
Nautische Dämmerung
Astronomische Dämmerung
Mond
Länge des sichtbaren Lichts
Tageslänge
Tomorrow will be .
, % of the Moon is Illuminated

Heutige Rekorde

State Highs State Lows

Community

WunderPhotos

Upload Photos

1,816,947 Fotos hochgeladen!

WunderBlogs® & News

Nearby

Luftqualität

  Luftqualität LQ Index Schadstoff
Not available.

Schneehöhe

Station Depth Höhe

Erdbebenaktivität

Stadt Distance Mag. Time & Date
Minimum magnitude displayed is 2.5.

küstennahe Wassertemperaturen

Ort Temperatur

Stations

Wetterstationen in der Umgebung

Stationsstandort Temp. Windchill Taupunkt Feuchtigkeit Wind Precip. Höhe Aktualisiert Art